Time;durP1;ratioP1;P1;durP2;ratioP2;P2;SDS_P1;SDS_P2;PMS_P1;PMS_P2;Temp;Humidity;BMP_temperature;BMP_pressure;BME280_temperature;BME280_humidity;BME280_pressure;Samples;Min_cycle;Max_cycle;Signal;HPM_P1;HPM_P2
2020/12/12 00:01:02;;;;;;;;;;;;;;;20.60;36.28;99410.03;5054761;28;884;-57
2020/12/12 00:03:28;;;;;;;;;;;;;;;20.60;36.55;99415.63;5054698;28;967;-57
2020/12/12 00:05:54;;;;;;;;;;;;;;;20.60;36.45;99418.44;5036602;28;1365;-57
2020/12/12 00:08:19;;;;;;;;;;;;;;;20.59;36.58;99414.06;5054579;28;1902;-56
2020/12/12 00:10:46;;;;;;;;;;;;;;;20.59;36.45;99414.88;5054556;28;836;-57
2020/12/12 00:13:14;;;;;;;;;;;;;;;20.59;36.52;99414.88;5054619;28;892;-57
2020/12/12 00:15:39;;;;;;;;;;;;;;;20.60;36.48;99410.03;5054328;28;1349;-55
2020/12/12 00:18:07;;;;;;;;;;;;;;;20.59;36.56;99417.66;5054542;28;1083;-55
2020/12/12 00:20:33;;;;;;;;;;;;;;;20.58;36.49;99413.28;5054789;28;814;-55
2020/12/12 00:22:58;;;;;;;;;;;;;;;20.59;36.46;99411.25;5054627;28;906;-54
2020/12/12 00:25:23;;;;;;;;;;;;;;;20.59;36.43;99417.66;5054336;28;980;-56
2020/12/12 00:27:48;;;;;;;;;;;;;;;20.59;36.46;99420.47;5054385;28;1886;-55
2020/12/12 00:30:14;;;;;;;;;;;;;;;20.59;36.42;99412.06;5054409;28;919;-54
2020/12/12 00:32:39;;;;;;;;;;;;;;;20.58;36.39;99410.47;5054665;28;838;-54
2020/12/12 00:35:05;;;;;;;;;;;;;;;20.59;36.47;99405.66;5055529;28;928;-57
2020/12/12 00:37:30;;;;;;;;;;;;;;;20.58;36.38;99409.69;5054297;28;1247;-57
2020/12/12 00:39:56;;;;;;;;;;;;;;;20.59;36.40;99411.25;5054466;28;1007;-57
2020/12/12 00:42:21;;;;;;;;;;;;;;;20.60;36.43;99407.22;5054395;28;960;-57
2020/12/12 00:44:47;;;;;;;;;;;;;;;20.59;36.43;99408.44;5054098;28;889;-57
2020/12/12 00:47:12;;;;;;;;;;;;;;;20.59;36.41;99411.25;5054375;28;1341;-57
2020/12/12 00:49:38;;;;;;;;;;;;;;;20.59;36.28;99409.25;5054177;28;1898;-58
2020/12/12 00:52:03;;;;;;;;;;;;;;;20.58;36.41;99404.88;5054238;28;832;-57
2020/12/12 00:54:29;;;;;;;;;;;;;;;20.58;36.50;99401.28;5054241;28;963;-57
2020/12/12 00:56:54;;;;;;;;;;;;;;;20.58;36.39;99404.09;5054512;28;1267;-57
2020/12/12 00:59:19;;;;;;;;;;;;;;;20.58;36.50;99404.88;5058064;28;851;-57
2020/12/12 01:01:46;;;;;;;;;;;;;;;20.58;36.51;99407.69;5057960;28;984;-57
2020/12/12 01:04:11;;;;;;;;;;;;;;;20.58;36.47;99406.91;5058213;28;892;-57
2020/12/12 01:06:37;;;;;;;;;;;;;;;20.59;36.43;99405.66;5057725;28;1333;-57
2020/12/12 01:09:02;;;;;;;;;;;;;;;20.58;36.54;99409.69;5057746;28;1902;-57
2020/12/12 01:11:27;;;;;;;;;;;;;;;20.57;36.58;99411.69;5057747;28;984;-57
2020/12/12 01:13:53;;;;;;;;;;;;;;;20.58;36.48;99409.69;5057751;28;877;-57
2020/12/12 01:16:18;;;;;;;;;;;;;;;20.58;36.53;99409.69;5057795;28;1270;-57
2020/12/12 01:18:43;;;;;;;;;;;;;;;20.57;36.40;99417.31;5057672;28;1013;-57
2020/12/12 01:21:15;;;;;;;;;;;;;;;20.57;36.35;99422.91;5057692;28;992;-57
2020/12/12 01:23:40;;;;;;;;;;;;;;;20.57;36.33;99425.72;5057544;28;868;-57
2020/12/12 01:26:05;;;;;;;;;;;;;;;20.58;36.51;99430.09;5057217;28;1392;-57
2020/12/12 01:28:31;;;;;;;;;;;;;;;20.57;36.38;99425.72;5057459;28;1977;-57
2020/12/12 01:30:56;;;;;;;;;;;;;;;20.57;36.46;99427.75;5057586;28;861;-57
2020/12/12 01:33:21;;;;;;;;;;;;;;;20.58;36.36;99434.94;5057703;28;885;-57
2020/12/12 01:35:47;;;;;;;;;;;;;;;20.58;36.42;99429.31;5057048;28;1397;-57
2020/12/12 01:38:13;;;;;;;;;;;;;;;20.58;36.42;99430.09;5057216;28;972;-57
2020/12/12 01:40:38;;;;;;;;;;;;;;;20.57;36.46;99434.13;5057496;28;975;-57
2020/12/12 01:43:04;;;;;;;;;;;;;;;20.57;36.39;99433.34;5057170;28;860;-57
2020/12/12 01:45:30;;;;;;;;;;;;;;;20.57;36.42;99430.56;5056908;28;1345;-57
2020/12/12 01:47:55;;;;;;;;;;;;;;;20.57;36.33;99424.94;5057036;28;1898;-57
2020/12/12 01:50:21;;;;;;;;;;;;;;;20.57;36.38;99427.75;5057347;28;789;-58
2020/12/12 01:52:50;;;;;;;;;;;;;;;20.57;36.33;99427.75;5057181;28;971;-58
2020/12/12 01:55:18;;;;;;;;;;;;;;;20.56;36.39;99435.38;5056797;28;892;-57
2020/12/12 01:57:47;;;;;;;;;;;;;;;20.56;36.46;99435.38;5056810;28;1309;-57
2020/12/12 02:00:12;;;;;;;;;;;;;;;20.57;36.46;99433.34;5056953;28;1052;-57
2020/12/12 02:02:38;;;;;;;;;;;;;;;20.57;36.44;99436.94;5057094;28;948;-55
2020/12/12 02:05:03;;;;;;;;;;;;;;;20.57;36.48;99433.34;5056629;28;957;-57
2020/12/12 02:07:29;;;;;;;;;;;;;;;20.56;36.47;99432.56;5056571;28;1906;-57
2020/12/12 02:09:55;;;;;;;;;;;;;;;20.56;36.38;99432.56;5056347;28;935;-57
2020/12/12 02:12:21;;;;;;;;;;;;;;;20.56;36.37;99437.41;5056674;28;817;-57
2020/12/12 02:14:46;;;;;;;;;;;;;;;20.56;36.47;99434.59;5056396;28;987;-57
2020/12/12 02:17:12;;;;;;;;;;;;;;;20.56;36.41;99437.41;5056643;28;1270;-56
2020/12/12 02:19:37;;;;;;;;;;;;;;;20.57;36.42;99430.56;5056661;28;933;-57
2020/12/12 02:22:06;;;;;;;;;;;;;;;20.56;36.50;99432.56;5056632;28;879;-57
2020/12/12 02:24:33;;;;;;;;;;;;;;;20.56;36.39;99423.38;5056359;28;861;-57
2020/12/12 02:27:03;;;;;;;;;;;;;;;20.55;36.35;99416.97;5056491;28;1269;-57
2020/12/12 02:29:41;;;;;;;;;;;;;;;20.56;36.40;99421.38;5056201;28;1964;-57
2020/12/12 02:32:07;;;;;;;;;;;;;;;20.56;36.35;99421.38;5056575;28;869;-57
2020/12/12 02:34:33;;;;;;;;;;;;;;;20.55;36.55;99425.38;5056064;28;842;-57
2020/12/12 02:36:58;;;;;;;;;;;;;;;20.56;36.40;99420.59;5056188;28;1254;-56
2020/12/12 02:39:24;;;;;;;;;;;;;;;20.56;36.47;99426.97;5056098;28;921;-57
2020/12/12 02:41:49;;;;;;;;;;;;;;;20.56;36.39;99420.59;5056079;28;949;-57
2020/12/12 02:44:14;;;;;;;;;;;;;;;20.55;36.48;99428.19;5056107;28;980;-57
2020/12/12 02:46:39;;;;;;;;;;;;;;;20.56;36.43;99429.78;5055744;28;1262;-56
2020/12/12 02:49:05;;;;;;;;;;;;;;;20.55;36.43;99435.81;5055775;28;1934;-57
2020/12/12 02:51:30;;;;;;;;;;;;;;;20.55;36.40;99442.19;5055905;28;976;-57
2020/12/12 02:53:55;;;;;;;;;;;;;;;20.56;36.44;99437.41;5055810;28;850;-56
2020/12/12 02:56:21;;;;;;;;;;;;;;;20.55;36.29;99442.19;5055866;28;1263;-55
2020/12/12 02:58:46;;;;;;;;;;;;;;;20.55;36.44;99439.41;5056331;28;806;-57
2020/12/12 03:01:11;;;;;;;;;;;;;;;20.55;36.40;99439.41;5055828;28;822;-57
2020/12/12 03:03:37;;;;;;;;;;;;;;;20.55;36.36;99439.41;5055657;28;797;-57
2020/12/12 03:06:02;;;;;;;;;;;;;;;20.56;36.44;99448.63;5055324;28;1310;-57
2020/12/12 03:08:28;;;;;;;;;;;;;;;20.55;36.41;99438.63;5055412;28;1965;-57
2020/12/12 03:10:53;;;;;;;;;;;;;;;20.56;36.34;99451.44;5055656;28;939;-55
2020/12/12 03:13:19;;;;;;;;;;;;;;;20.55;36.37;99449.84;5055565;28;790;-57
2020/12/12 03:15:45;;;;;;;;;;;;;;;20.55;36.60;99444.22;5055408;28;1258;-57
2020/12/12 03:18:10;;;;;;;;;;;;;;;20.55;36.40;99439.41;5055402;28;1047;-57
2020/12/12 03:20:36;;;;;;;;;;;;;;;20.55;36.42;99447.81;5054659;28;905;-57
2020/12/12 03:23:01;;;;;;;;;;;;;;;20.55;36.49;99433.78;5055410;28;801;-57
2020/12/12 03:25:26;;;;;;;;;;;;;;;20.55;36.54;99441.44;5055233;28;1031;-57
2020/12/12 03:27:51;;;;;;;;;;;;;;;20.55;36.48;99435.81;5055047;28;1899;-57
2020/12/12 03:30:17;;;;;;;;;;;;;;;20.55;36.51;99435.81;5055126;28;877;-56
2020/12/12 03:32:42;;;;;;;;;;;;;;;20.56;36.32;99448.63;5055106;28;852;-57
2020/12/12 03:35:07;;;;;;;;;;;;;;;20.54;36.47;99443.44;5055043;28;920;-57
2020/12/12 03:37:33;;;;;;;;;;;;;;;20.54;36.50;99440.66;5055144;28;1235;-57
2020/12/12 03:39:58;;;;;;;;;;;;;;;20.55;36.45;99453.41;5055324;28;968;-55
2020/12/12 03:42:23;;;;;;;;;;;;;;;20.55;36.44;99452.66;5055341;28;1015;-57
2020/12/12 03:44:49;;;;;;;;;;;;;;;20.55;36.38;99455.44;5054854;28;824;-57
2020/12/12 03:47:14;;;;;;;;;;;;;;;20.55;36.40;99449.84;5054866;28;1345;-56
2020/12/12 03:49:39;;;;;;;;;;;;;;;20.55;36.47;99452.66;5054787;28;1906;-57
2020/12/12 03:52:05;;;;;;;;;;;;;;;20.55;36.52;99459.03;5054893;28;980;-57
2020/12/12 03:54:30;;;;;;;;;;;;;;;20.55;36.49;99447.03;5054673;28;941;-57
2020/12/12 03:56:56;;;;;;;;;;;;;;;20.55;36.45;99459.03;5055128;28;1350;-57
2020/12/12 03:59:21;;;;;;;;;;;;;;;20.54;36.50;99457.47;5055088;28;944;-57
2020/12/12 04:01:47;;;;;;;;;;;;;;;20.55;36.48;99461.84;5054978;28;776;-57
2020/12/12 04:04:13;;;;;;;;;;;;;;;20.55;36.48;99466.66;5054799;28;841;-57
2020/12/12 04:06:38;;;;;;;;;;;;;;;20.54;36.34;99465.88;5054532;28;1258;-57
2020/12/12 04:09:03;;;;;;;;;;;;;;;20.55;36.47;99463.84;5054493;28;1974;-57
2020/12/12 04:11:29;;;;;;;;;;;;;;;20.55;36.48;99472.28;5054536;28;817;-57
2020/12/12 04:13:54;;;;;;;;;;;;;;;20.55;36.30;99463.84;5054644;28;996;-57
2020/12/12 04:16:19;;;;;;;;;;;;;;;20.54;36.51;99468.69;5054656;28;1359;-55
2020/12/12 04:18:45;;;;;;;;;;;;;;;20.55;36.51;99469.47;5054574;28;777;-57
2020/12/12 04:21:10;;;;;;;;;;;;;;;20.54;36.34;99465.88;5054589;28;980;-57
2020/12/12 04:23:36;;;;;;;;;;;;;;;20.54;36.53;99465.06;5054544;28;888;-57
2020/12/12 04:26:03;;;;;;;;;;;;;;;20.54;36.48;99473.50;5054486;28;1263;-57
2020/12/12 04:28:28;;;;;;;;;;;;;;;20.54;36.48;99471.50;5054992;28;1964;-57
2020/12/12 04:30:53;;;;;;;;;;;;;;;20.55;36.45;99475.06;5054749;28;983;-57
2020/12/12 04:33:19;;;;;;;;;;;;;;;20.55;36.41;99469.47;5058495;28;794;-57
2020/12/12 04:35:44;;;;;;;;;;;;;;;20.54;36.52;99468.69;5058110;28;1230;-58
2020/12/12 04:38:09;;;;;;;;;;;;;;;20.55;36.41;99466.66;5058571;28;809;-57
2020/12/12 04:40:34;;;;;;;;;;;;;;;20.55;36.48;99475.06;5058314;28;991;-55
2020/12/12 04:43:02;;;;;;;;;;;;;;;20.55;36.49;99472.28;5058328;28;902;-57
2020/12/12 04:45:28;;;;;;;;;;;;;;;20.54;36.51;99468.69;5058193;28;843;-57
2020/12/12 04:47:53;;;;;;;;;;;;;;;20.55;36.52;99475.84;5058163;28;1890;-57
2020/12/12 04:50:28;;;;;;;;;;;;;;;20.54;36.43;99465.88;5058370;28;865;-58
2020/12/12 04:52:57;;;;;;;;;;;;;;;20.54;36.51;99465.88;5058991;28;868;-57
2020/12/12 04:55:24;;;;;;;;;;;;;;;20.55;36.59;99473.03;5058246;28;813;-55
2020/12/12 04:57:52;;;;;;;;;;;;;;;20.54;36.52;99474.28;5057940;28;1337;-57
2020/12/12 05:00:19;;;;;;;;;;;;;;;20.55;36.58;99475.06;5058278;28;1031;-57
2020/12/12 05:02:46;;;;;;;;;;;;;;;20.54;36.41;99465.88;5058105;28;934;-57
2020/12/12 05:05:11;;;;;;;;;;;;;;;20.55;36.52;99470.25;5057714;28;975;-57
2020/12/12 05:07:36;;;;;;;;;;;;;;;20.55;36.48;99475.06;5057596;28;1901;-57
2020/12/12 05:10:03;;;;;;;;;;;;;;;20.55;36.44;99473.03;5057938;28;868;-57
2020/12/12 05:12:29;;;;;;;;;;;;;;;20.54;36.72;99468.69;5057721;28;988;-57
2020/12/12 05:14:54;;;;;;;;;;;;;;;20.54;36.50;99474.28;5057490;28;976;-57
2020/12/12 05:17:20;;;;;;;;;;;;;;;20.55;36.38;99475.06;5057720;28;1349;-57
2020/12/12 05:19:48;;;;;;;;;;;;;;;20.55;36.57;99467.44;5057995;28;766;-57
2020/12/12 05:22:14;;;;;;;;;;;;;;;20.55;36.51;99469.47;5057569;28;770;-57
2020/12/12 05:24:39;;;;;;;;;;;;;;;20.55;36.45;99466.66;5057371;28;1075;-57
2020/12/12 05:27:05;;;;;;;;;;;;;;;20.55;36.41;99470.25;5057651;28;1262;-57
2020/12/12 05:29:30;;;;;;;;;;;;;;;20.54;36.55;99471.50;5057474;28;1906;-57
2020/12/12 05:31:59;;;;;;;;;;;;;;;20.55;36.44;99472.28;5057561;28;912;-57
2020/12/12 05:34:25;;;;;;;;;;;;;;;20.55;36.47;99477.88;5057190;28;829;-57
2020/12/12 05:36:51;;;;;;;;;;;;;;;20.55;36.47;99469.47;5057389;28;1282;-57
2020/12/12 05:39:17;;;;;;;;;;;;;;;20.54;36.38;99471.50;5057279;28;924;-57
2020/12/12 05:41:45;;;;;;;;;;;;;;;20.55;36.52;99480.69;5057440;28;859;-56
2020/12/12 05:44:11;;;;;;;;;;;;;;;20.54;36.50;99485.50;5056521;28;1016;-57
2020/12/12 05:46:38;;;;;;;;;;;;;;;20.55;36.56;99492.66;5057261;28;1365;-57
2020/12/12 05:49:04;;;;;;;;;;;;;;;20.54;36.57;99488.31;5057434;28;1953;-57
2020/12/12 05:51:30;;;;;;;;;;;;;;;20.55;36.45;99486.28;5057323;28;935;-57
2020/12/12 05:53:57;;;;;;;;;;;;;;;20.54;36.51;99491.13;5057056;28;996;-57
2020/12/12 05:56:23;;;;;;;;;;;;;;;20.55;36.40;99494.69;5056974;28;1278;-57
2020/12/12 05:58:51;;;;;;;;;;;;;;;20.55;36.41;99500.31;5057476;28;956;-58
2020/12/12 06:01:21;;;;;;;;;;;;;;;20.56;36.47;99497.06;5057023;28;905;-59
2020/12/12 06:04:00;;;;;;;;;;;;;;;20.56;36.52;99499.09;5056817;28;984;-58
2020/12/12 06:06:26;;;;;;;;;;;;;;;20.55;36.48;99498.28;5056539;28;1302;-59
2020/12/12 06:09:09;;;;;;;;;;;;;;;20.55;36.34;99501.09;5056663;28;1908;-58
2020/12/12 06:11:39;;;;;;;;;;;;;;;20.56;36.40;99502.66;5056713;28;893;-58
2020/12/12 06:14:05;;;;;;;;;;;;;;;20.56;36.36;99508.28;5056885;28;773;-59
2020/12/12 06:16:32;;;;;;;;;;;;;;;20.56;36.38;99505.47;5056315;28;1350;-59
2020/12/12 06:19:08;;;;;;;;;;;;;;;20.57;36.48;99506.25;5056698;28;1821;-59
2020/12/12 06:21:34;;;;;;;;;;;;;;;20.57;36.38;99512.63;5056663;28;778;-59
2020/12/12 06:24:00;;;;;;;;;;;;;;;20.57;36.48;99512.63;5056418;28;865;-59
2020/12/12 06:26:39;;;;;;;;;;;;;;;20.58;36.47;99519.06;5056457;28;1274;-59
2020/12/12 06:29:05;;;;;;;;;;;;;;;20.57;36.31;99521.03;5056480;28;1952;-59
2020/12/12 06:31:36;;;;;;;;;;;;;;;20.58;36.47;99516.25;5056597;28;810;-58
2020/12/12 06:34:01;;;;;;;;;;;;;;;20.59;36.52;99523.41;5056497;28;854;-59
2020/12/12 06:36:32;;;;;;;;;;;;;;;20.59;36.48;99520.59;5055927;28;1382;-59
2020/12/12 06:39:19;;;;;;;;;;;;;;;20.59;36.58;99515.00;5056086;28;806;-58
2020/12/12 06:41:46;;;;;;;;;;;;;;;20.59;36.54;99526.22;5056636;28;984;-59
2020/12/12 06:44:12;;;;;;;;;;;;;;;20.58;36.51;99521.84;5055961;28;797;-59
2020/12/12 06:46:54;;;;;;;;;;;;;;;20.58;36.61;99525.44;5055790;28;1269;-59
2020/12/12 06:49:21;;;;;;;;;;;;;;;20.58;36.60;99528.25;5056439;28;1956;-59
2020/12/12 06:51:48;;;;;;;;;;;;;;;20.58;36.62;99521.84;5056357;28;868;-59
2020/12/12 06:54:13;;;;;;;;;;;;;;;20.58;36.64;99528.25;5055662;28;979;-59
2020/12/12 06:56:38;;;;;;;;;;;;;;;20.59;36.58;99534.63;5054812;28;1273;-59
2020/12/12 06:59:27;;;;;;;;;;;;;;;20.60;36.62;99541.81;5056105;28;797;-59
2020/12/12 07:01:57;;;;;;;;;;;;;;;20.59;36.70;99538.25;5055568;28;841;-59
2020/12/12 07:04:33;;;;;;;;;;;;;;;20.59;36.67;99540.22;5055634;28;893;-58
2020/12/12 07:07:08;;;;;;;;;;;;;;;20.59;36.67;99537.44;5055779;28;1294;-58
2020/12/12 07:09:35;;;;;;;;;;;;;;;20.58;36.69;99545.06;5055581;28;1906;-59
2020/12/12 07:12:00;;;;;;;;;;;;;;;20.58;36.62;99547.88;5055340;28;778;-59
2020/12/12 07:14:26;;;;;;;;;;;;;;;20.60;36.49;99564.25;5055270;28;853;-57
2020/12/12 07:16:57;;;;;;;;;;;;;;;20.60;36.62;99561.44;5055538;28;1333;-58
2020/12/12 07:19:37;;;;;;;;;;;;;;;20.60;36.64;99555.84;5055334;28;830;-59
2020/12/12 07:22:08;;;;;;;;;;;;;;;20.60;36.56;99567.06;5055133;28;773;-58
2020/12/12 07:24:34;;;;;;;;;;;;;;;20.59;36.76;99560.66;5054774;28;1286;-58
2020/12/12 07:27:00;;;;;;;;;;;;;;;20.59;36.65;99565.47;5054932;28;1385;-59
2020/12/12 07:29:27;;;;;;;;;;;;;;;20.59;36.58;99566.28;5055290;28;1897;-58
2020/12/12 07:31:53;;;;;;;;;;;;;;;20.60;36.64;99572.66;5054905;28;789;-58
2020/12/12 07:34:22;;;;;;;;;;;;;;;20.60;36.67;99569.84;5054968;28;838;-59
2020/12/12 07:37:09;;;;;;;;;;;;;;;20.59;36.72;99573.88;5054495;28;1270;-58
2020/12/12 07:39:40;;;;;;;;;;;;;;;20.59;36.62;99576.69;5054928;28;1749;-58
2020/12/12 07:42:08;;;;;;;;;;;;;;;20.61;36.81;99585.47;5054900;28;846;-59
2020/12/12 07:44:35;;;;;;;;;;;;;;;20.59;36.61;99579.50;5054629;28;892;-58
2020/12/12 07:47:03;;;;;;;;;;;;;;;20.60;36.65;99589.47;5054651;28;1341;-59
2020/12/12 07:49:30;;;;;;;;;;;;;;;20.60;36.61;99597.91;5054700;28;1894;-58
2020/12/12 07:52:00;;;;;;;;;;;;;;;20.60;36.79;99597.91;5054558;28;857;-59
2020/12/12 07:54:31;;;;;;;;;;;;;;;20.60;36.64;99607.09;5054629;28;786;-59
2020/12/12 07:56:57;;;;;;;;;;;;;;;20.60;36.80;99617.53;5054618;28;1302;-58
2020/12/12 07:59:22;;;;;;;;;;;;;;;20.59;36.62;99621.56;5054782;28;929;-59
2020/12/12 08:01:49;;;;;;;;;;;;;;;20.59;36.64;99613.94;5054709;28;786;-59
2020/12/12 08:04:19;;;;;;;;;;;;;;;20.60;36.56;99623.13;5054698;28;861;-58
2020/12/12 08:06:44;;;;;;;;;;;;;;;20.60;36.72;99623.13;5053964;28;1360;-59
2020/12/12 08:09:09;;;;;;;;;;;;;;;20.59;36.71;99619.56;5054222;28;1973;-58
2020/12/12 08:11:35;;;;;;;;;;;;;;;20.60;36.60;99623.13;5054318;28;992;-58
2020/12/12 08:14:02;;;;;;;;;;;;;;;20.60;36.55;99625.94;5054283;28;1039;-59
2020/12/12 08:16:37;;;;;;;;;;;;;;;20.60;36.59;99623.91;5054032;28;1267;-59
2020/12/12 08:19:04;;;;;;;;;;;;;;;20.59;36.58;99625.16;5054263;28;848;-59
2020/12/12 08:21:29;;;;;;;;;;;;;;;20.59;36.50;99633.56;5054282;28;831;-59
2020/12/12 08:23:55;;;;;;;;;;;;;;;20.59;36.61;99639.19;5054564;28;862;-58
2020/12/12 08:26:22;;;;;;;;;;;;;;;20.58;36.65;99642.41;5053855;28;1286;-56
2020/12/12 08:28:48;;;;;;;;;;;;;;;20.57;36.62;99638.81;5054277;28;1959;-58
2020/12/12 08:31:18;;;;;;;;;;;;;;;20.57;36.57;99646.44;5053955;28;964;-59
2020/12/12 08:33:45;;;;;;;;;;;;;;;20.57;36.59;99644.41;5054426;28;801;-59
2020/12/12 08:36:23;;;;;;;;;;;;;;;20.57;36.52;99650.03;5053771;28;1412;-59
2020/12/12 08:38:54;;;;;;;;;;;;;;;20.57;36.59;99657.66;5054476;28;846;-58
2020/12/12 08:41:20;;;;;;;;;;;;;;;20.56;36.64;99654.06;5053814;28;1043;-59
2020/12/12 08:43:46;;;;;;;;;;;;;;;20.56;36.49;99658.91;5054035;28;971;-59
2020/12/12 08:46:16;;;;;;;;;;;;;;;20.57;36.44;99661.25;5054002;28;1266;-59
2020/12/12 08:48:42;;;;;;;;;;;;;;;20.57;36.59;99668.88;5054070;28;1902;-59
2020/12/12 08:51:09;;;;;;;;;;;;;;;20.56;36.47;99673.69;5054468;28;1020;-59
2020/12/12 08:53:41;;;;;;;;;;;;;;;20.57;36.36;99669.66;5053917;28;859;-59
2020/12/12 08:56:09;;;;;;;;;;;;;;;20.57;36.51;99669.66;5053679;28;1447;-59
2020/12/12 08:58:56;;;;;;;;;;;;;;;20.56;36.41;99676.50;5053996;28;869;-58
2020/12/12 09:01:27;;;;;;;;;;;;;;;20.57;36.39;99671.69;5054438;28;762;-58
2020/12/12 09:04:00;;;;;;;;;;;;;;;20.56;36.43;99676.50;5054002;28;825;-58
2020/12/12 09:06:33;;;;;;;;;;;;;;;20.57;36.40;99685.69;5053866;28;1372;-59
2020/12/12 09:09:24;;;;;;;;;;;;;;;20.55;36.33;99683.34;5053941;28;1902;-59
2020/12/12 09:12:00;;;;;;;;;;;;;;;20.56;36.24;99690.53;5050410;28;1145;-58
2020/12/12 09:14:27;;;;;;;;;;;;;;;20.55;36.44;99686.13;5053966;28;885;-61
2020/12/12 09:16:57;;;;;;;;;;;;;;;20.56;36.39;99698.16;5054021;28;1270;-59
2020/12/12 09:19:24;;;;;;;;;;;;;;;20.55;36.34;99697.34;5056063;28;1136;-59
2020/12/12 09:21:50;;;;;;;;;;;;;;;20.56;36.39;99701.75;5057371;28;908;-58
2020/12/12 09:24:18;;;;;;;;;;;;;;;20.54;36.47;99698.59;5057430;28;1372;-59
2020/12/12 09:26:43;;;;;;;;;;;;;;;20.55;36.35;99700.16;5057399;28;1259;-59
2020/12/12 09:29:09;;;;;;;;;;;;;;;20.54;36.23;99706.19;5057338;28;1952;-59
2020/12/12 09:31:34;;;;;;;;;;;;;;;20.53;36.05;99707.44;5057312;28;960;-58
2020/12/12 09:34:00;;;;;;;;;;;;;;;20.52;36.02;99706.66;5057043;28;805;-58
2020/12/12 09:36:25;;;;;;;;;;;;;;;20.52;35.89;99703.88;5056925;28;1278;-59
2020/12/12 09:38:51;;;;;;;;;;;;;;;20.52;35.87;99697.44;5057236;28;844;-59
2020/12/12 09:41:17;;;;;;;;;;;;;;;20.51;35.84;99701.50;5056660;28;880;-59
2020/12/12 09:43:42;;;;;;;;;;;;;;;20.51;35.87;99701.50;5056119;28;877;-60
2020/12/12 09:46:08;;;;;;;;;;;;;;;20.50;35.73;99709.09;5056108;28;1278;-59
2020/12/12 09:48:37;;;;;;;;;;;;;;;20.49;35.71;99704.72;5056926;28;1902;-58
2020/12/12 09:51:04;;;;;;;;;;;;;;;20.50;35.58;99720.31;5057063;28;1342;-58
2020/12/12 09:53:30;;;;;;;;;;;;;;;20.48;35.72;99715.13;5056864;28;1269;-59
2020/12/12 09:55:56;;;;;;;;;;;;;;;20.48;35.58;99720.75;5056717;28;1357;-59
2020/12/12 09:58:23;;;;;;;;;;;;;;;20.48;35.41;99725.56;5056986;28;853;-59
2020/12/12 10:00:48;;;;;;;;;;;;;;;20.47;35.59;99724.78;5056831;28;892;-59
2020/12/12 10:03:13;;;;;;;;;;;;;;;20.42;35.38;99728.13;5056394;28;1486;-59
2020/12/12 10:05:39;;;;;;;;;;;;;;;20.41;35.18;99725.75;5056381;28;1380;-59
2020/12/12 10:08:04;;;;;;;;;;;;;;;20.39;34.97;99723.38;5057041;28;1898;-56
2020/12/12 10:10:31;;;;;;;;;;;;;;;20.42;35.13;99730.16;5057014;28;1300;-53
2020/12/12 10:12:57;;;;;;;;;;;;;;;20.44;35.16;99736.88;5056362;28;1614;-56
2020/12/12 10:15:22;;;;;;;;;;;;;;;20.45;35.20;99734.84;5056455;28;805;-55
2020/12/12 10:17:49;;;;;;;;;;;;;;;20.45;35.21;99740.47;5056516;28;1286;-53
2020/12/12 10:20:15;;;;;;;;;;;;;;;20.45;35.28;99740.47;5056523;28;913;-53
2020/12/12 10:22:40;;;;;;;;;;;;;;;20.46;35.30;99744.84;5056408;28;881;-54
2020/12/12 10:25:07;;;;;;;;;;;;;;;20.46;35.23;99742.06;5056198;28;909;-56
2020/12/12 10:27:34;;;;;;;;;;;;;;;20.45;35.36;99744.06;5056327;28;1255;-56
2020/12/12 10:29:59;;;;;;;;;;;;;;;20.46;35.38;99750.47;5055909;28;1973;-54
2020/12/12 10:32:25;;;;;;;;;;;;;;;20.46;35.19;99747.66;5056131;28;809;-54
2020/12/12 10:34:51;;;;;;;;;;;;;;;20.45;35.44;99744.06;5056067;28;925;-56
2020/12/12 10:37:16;;;;;;;;;;;;;;;20.46;35.44;99751.25;5056007;28;1471;-56
2020/12/12 10:39:50;;;;;;;;;;;;;;;20.45;35.45;99749.69;5056275;28;854;-54
2020/12/12 10:42:16;;;;;;;;;;;;;;;20.46;35.41;99747.66;5056023;28;864;-55
2020/12/12 10:44:41;;;;;;;;;;;;;;;20.45;35.38;99752.47;5055414;28;826;-55
2020/12/12 10:47:07;;;;;;;;;;;;;;;20.45;35.51;99751.69;5055142;28;1262;-53
2020/12/12 10:49:32;;;;;;;;;;;;;;;20.45;35.46;99749.69;5055449;28;1893;-56
2020/12/12 10:51:57;;;;;;;;;;;;;;;20.44;35.32;99750.91;5055926;28;869;-54
2020/12/12 10:54:26;;;;;;;;;;;;;;;20.46;35.39;99756.06;5055731;28;860;-56
2020/12/12 10:56:52;;;;;;;;;;;;;;;20.46;35.39;99758.88;5055469;28;1708;-54
2020/12/12 10:59:17;;;;;;;;;;;;;;;20.45;35.57;99760.91;5055539;28;1066;-56
2020/12/12 11:01:42;;;;;;;;;;;;;;;20.44;35.44;99761.34;5055449;28;921;-54
2020/12/12 11:04:08;;;;;;;;;;;;;;;20.44;35.29;99762.09;5055251;28;1055;-56
2020/12/12 11:06:33;;;;;;;;;;;;;;;20.44;35.36;99767.72;5055150;28;1287;-55
2020/12/12 11:08:59;;;;;;;;;;;;;;;20.44;35.36;99767.72;5055191;28;1906;-56
2020/12/12 11:11:25;;;;;;;;;;;;;;;20.44;35.47;99773.31;5055266;28;845;-53
2020/12/12 11:13:50;;;;;;;;;;;;;;;20.44;35.43;99775.34;5055453;28;944;-55
2020/12/12 11:16:20;;;;;;;;;;;;;;;20.44;35.46;99772.53;5055125;28;1258;-56
2020/12/12 11:18:49;;;;;;;;;;;;;;;20.44;35.58;99767.72;5055495;28;992;-56
2020/12/12 11:21:21;;;;;;;;;;;;;;;20.44;35.43;99769.75;5055189;28;1460;-57
2020/12/12 11:23:47;;;;;;;;;;;;;;;20.43;35.61;99766.13;5055152;28;1229;-56
2020/12/12 11:26:13;;;;;;;;;;;;;;;20.43;35.33;99757.72;5037223;28;1278;-55
2020/12/12 11:28:40;;;;;;;;;;;;;;;20.44;35.21;99761.34;5055049;28;1959;-56
2020/12/12 11:31:06;;;;;;;;;;;;;;;20.44;35.33;99764.91;5055349;28;809;-54
2020/12/12 11:33:32;;;;;;;;;;;;;;;20.44;35.39;99764.91;5055657;28;850;-56
2020/12/12 11:36:17;;;;;;;;;;;;;;;20.44;35.25;99766.94;5054918;28;1294;-55
2020/12/12 11:39:08;;;;;;;;;;;;;;;20.45;35.30;99768.50;5055610;28;916;-56
2020/12/12 11:44:37;;;;;;;;;;;;;;;20.44;35.16;99776.13;5055299;28;822;-54
2020/12/12 11:47:03;;;;;;;;;;;;;;;20.44;35.15;99775.34;5054678;28;1587;-55
2020/12/12 11:49:28;;;;;;;;;;;;;;;20.45;35.01;99777.72;5054724;28;1977;-55
2020/12/12 11:51:54;;;;;;;;;;;;;;;20.45;35.15;99783.31;5054865;28;933;-56
2020/12/12 11:54:19;;;;;;;;;;;;;;;20.45;35.32;99790.94;5054719;28;904;-57
2020/12/12 11:56:44;;;;;;;;;;;;;;;20.45;35.31;99779.72;5054714;28;1560;-57
2020/12/12 11:59:12;;;;;;;;;;;;;;;20.44;35.25;99792.16;5054784;28;980;-57
2020/12/12 12:01:38;;;;;;;;;;;;;;;20.44;35.02;99792.94;5054910;28;942;-58
2020/12/12 12:04:03;;;;;;;;;;;;;;;20.45;35.39;99794.53;5054561;28;790;-57
2020/12/12 12:06:28;;;;;;;;;;;;;;;20.45;35.28;99796.53;5054112;28;1262;-57
2020/12/12 12:11:33;;;;;;;;;;;;;;;20.44;35.41;99795.75;5054384;28;632;-56
2020/12/12 12:14:00;;;;;;;;;;;;;;;20.44;35.41;99798.56;5054755;28;981;-56
2020/12/12 12:16:27;;;;;;;;;;;;;;;20.44;35.32;99804.16;5053965;28;1344;-56
2020/12/12 12:18:53;;;;;;;;;;;;;;;20.44;35.44;99804.16;5054639;28;906;-56
2020/12/12 12:21:18;;;;;;;;;;;;;;;20.44;35.46;99809.78;5054412;28;865;-56
2020/12/12 12:23:43;;;;;;;;;;;;;;;20.44;35.44;99801.34;5054359;28;766;-58
2020/12/12 12:26:10;;;;;;;;;;;;;;;20.44;35.27;99797.78;5036526;28;1416;-57
2020/12/12 12:28:35;;;;;;;;;;;;;;;20.44;35.19;99803.38;5054719;28;1902;-57
2020/12/12 12:31:01;;;;;;;;;;;;;;;20.44;35.44;99804.16;5054525;28;1512;-57
2020/12/12 12:33:26;;;;;;;;;;;;;;;20.44;35.41;99804.16;5054421;28;770;-57
2020/12/12 12:35:52;;;;;;;;;;;;;;;20.44;35.31;99806.19;5054066;28;1262;-57
2020/12/12 12:38:17;;;;;;;;;;;;;;;20.44;35.44;99806.97;5054256;28;911;-57
2020/12/12 12:40:42;;;;;;;;;;;;;;;20.45;35.29;99816.16;5054326;28;1245;-57
2020/12/12 12:43:08;;;;;;;;;;;;;;;20.43;35.27;99813.78;5054513;28;829;-56
2020/12/12 12:45:33;;;;;;;;;;;;;;;20.43;35.28;99813.78;5054069;28;1266;-57
2020/12/12 12:47:59;;;;;;;;;;;;;;;20.43;35.29;99810.97;5054136;28;1897;-57
2020/12/12 12:50:33;;;;;;;;;;;;;;;20.44;35.41;99817.41;5054163;28;901;-57
2020/12/12 12:53:17;;;;;;;;;;;;;;;20.44;35.30;99823.00;5056138;28;923;-57
2020/12/12 12:55:42;;;;;;;;;;;;;;;20.43;35.36;99816.59;5057837;28;1302;-57
2020/12/12 12:58:08;;;;;;;;;;;;;;;20.44;35.28;99820.97;5058146;28;793;-57
2020/12/12 13:00:37;;;;;;;;;;;;;;;20.44;35.29;99815.38;5058070;28;847;-57
2020/12/12 13:03:03;;;;;;;;;;;;;;;20.43;35.33;99819.41;5057755;28;1225;-57
2020/12/12 13:05:28;;;;;;;;;;;;;;;20.44;35.31;99825.81;5057935;28;687;-54
2020/12/12 13:07:53;;;;;;;;;;;;;;;20.43;35.36;99821.41;5057459;28;1906;-55